Time;durP1;ratioP1;P1;durP2;ratioP2;P2;SDS_P1;SDS_P2;PMS_P1;PMS_P2;Temp;Humidity;BMP_temperature;BMP_pressure;BME280_temperature;BME280_humidity;BME280_pressure;Samples;Min_cycle;Max_cycle;Signal;HPM_P1;HPM_P2
2021/05/25 00:01:14;;;;;;;5.30;4.80;;;;;;;14.88;77.46;100421.81;5047376;28;20527;-67
2021/05/25 00:03:41;;;;;;;4.45;4.05;;;;;;;14.99;77.14;100421.13;5048717;28;20059;-67
2021/05/25 00:06:09;;;;;;;5.22;4.50;;;;;;;14.90;76.91;100425.16;5048680;28;20044;-67
2021/05/25 00:08:36;;;;;;;5.47;4.97;;;;;;;14.86;78.09;100423.69;5048787;28;20450;-67
2021/05/25 00:11:03;;;;;;;5.15;4.13;;;;;;;14.77;78.25;100432.16;5048663;28;20064;-67
2021/05/25 00:13:30;;;;;;;5.00;4.47;;;;;;;14.58;79.18;100430.69;5048241;28;20037;-67
2021/05/25 00:15:57;;;;;;;8.77;6.43;;;;;;;14.45;80.05;100427.16;5049094;28;20048;-67
2021/05/25 00:18:24;;;;;;;5.35;4.55;;;;;;;14.52;79.49;100423.22;5049072;28;20039;-67
2021/05/25 00:20:51;;;;;;;8.43;4.38;;;;;;;14.61;78.96;100421.81;5049319;28;20069;-67
2021/05/25 00:23:19;;;;;;;11.48;5.25;;;;;;;14.63;78.09;100422.53;5048242;28;20049;-67
2021/05/25 00:25:46;;;;;;;5.50;4.70;;;;;;;14.65;78.99;100432.00;5047208;28;20068;-67
2021/05/25 00:28:13;;;;;;;5.22;3.83;;;;;;;14.64;78.13;100425.06;5048283;28;20039;-67
2021/05/25 00:30:40;;;;;;;10.82;5.20;;;;;;;14.67;78.11;100426.66;5048259;28;20045;-67
2021/05/25 00:33:07;;;;;;;5.25;4.63;;;;;;;14.68;77.58;100421.31;5047327;28;20037;-67
2021/05/25 00:35:39;;;;;;;4.80;4.40;;;;;;;14.68;77.47;100425.72;5048164;28;20041;-67
2021/05/25 00:38:07;;;;;;;7.38;5.47;;;;;;;14.71;78.03;100432.56;5047779;28;20107;-67
2021/05/25 00:40:34;;;;;;;5.57;4.32;;;;;;;14.64;77.55;100429.47;5029380;28;20049;-66
2021/05/25 00:43:01;;;;;;;6.53;4.63;;;;;;;14.68;77.10;100425.72;5048202;28;20124;-67
2021/05/25 00:45:28;;;;;;;8.00;4.60;;;;;;;14.51;78.27;100416.31;5040561;28;20052;-67
2021/05/25 00:47:56;;;;;;;5.68;4.55;;;;;;;14.51;77.91;100415.47;5047919;28;20781;-67
2021/05/25 00:50:27;;;;;;;5.93;5.38;;;;;;;14.46;78.20;100420.13;5047695;28;20041;-67
2021/05/25 00:53:00;;;;;;;5.88;5.00;;;;;;;14.48;77.58;100413.88;5047199;28;20061;-67
2021/05/25 00:55:33;;;;;;;8.77;6.05;;;;;;;14.54;76.96;100418.75;5047567;28;20448;-67
2021/05/25 00:58:04;;;;;;;7.47;5.20;;;;;;;14.39;77.57;100424.94;5048690;28;20496;-66
2021/05/25 01:00:57;;;;;;;5.30;4.78;;;;;;;14.30;78.54;100420.25;5048830;28;20044;-67
2021/05/25 01:03:24;;;;;;;8.93;5.82;;;;;;;14.27;78.98;100418.66;5041919;28;20049;-66
2021/05/25 01:05:51;;;;;;;5.25;4.65;;;;;;;14.43;78.09;100421.16;5047848;28;20088;-68
2021/05/25 01:08:18;;;;;;;6.25;4.72;;;;;;;14.44;78.31;100407.13;5047438;28;20052;-67
2021/05/25 01:10:52;;;;;;;5.78;4.85;;;;;;;14.47;77.45;100409.56;5047714;28;20283;-65
2021/05/25 01:13:25;;;;;;;7.22;4.65;;;;;;;14.48;77.91;100399.91;5046818;28;20041;-65
2021/05/25 01:15:52;;;;;;;8.75;4.85;;;;;;;14.44;77.50;100401.88;5047419;28;20980;-66
2021/05/25 01:18:19;;;;;;;6.35;4.38;;;;;;;14.35;77.85;100411.16;5047178;28;20078;-66
2021/05/25 01:20:49;;;;;;;5.82;4.57;;;;;;;14.21;78.56;100408.53;5047197;28;20176;-66
2021/05/25 01:23:16;;;;;;;6.57;4.15;;;;;;;14.34;78.14;100403.38;5046873;28;20462;-66
2021/05/25 01:25:46;;;;;;;6.75;4.03;;;;;;;14.37;77.74;100400.56;5047218;28;20033;-65
2021/05/25 01:28:15;;;;;;;5.20;4.18;;;;;;;14.33;76.85;100405.19;5047002;28;20041;-66
2021/05/25 01:30:47;;;;;;;5.25;4.75;;;;;;;14.27;77.41;100404.69;5047312;28;20036;-65
2021/05/25 01:33:14;;;;;;;9.80;5.03;;;;;;;14.23;77.30;100405.84;5046797;28;20128;-66
2021/05/25 01:35:42;;;;;;;6.40;4.95;;;;;;;14.23;77.80;100411.09;5047118;28;20476;-65
2021/05/25 01:38:11;;;;;;;9.60;4.82;;;;;;;14.12;77.33;100412.59;5046701;28;20045;-65
2021/05/25 01:40:38;;;;;;;9.93;5.57;;;;;;;14.14;77.17;100413.34;5045739;28;20052;-65
2021/05/25 01:43:06;;;;;;;8.10;5.40;;;;;;;14.15;77.15;100417.63;5046866;28;20037;-65
2021/05/25 01:45:34;;;;;;;6.28;5.38;;;;;;;14.29;76.12;100418.56;5028884;28;20076;-65
2021/05/25 01:48:03;;;;;;;7.45;4.60;;;;;;;14.44;75.53;100422.84;5046395;28;20041;-66
2021/05/25 01:50:31;;;;;;;6.68;4.88;;;;;;;14.37;75.41;100414.50;5046146;28;20103;-65
2021/05/25 01:53:07;;;;;;;8.70;5.03;;;;;;;14.23;76.12;100413.72;5046543;28;20045;-66
2021/05/25 01:55:40;;;;;;;8.98;6.72;;;;;;;14.33;76.00;100422.69;5045494;28;20033;-64
2021/05/25 01:58:10;;;;;;;6.18;4.80;;;;;;;14.39;75.64;100415.28;5046117;28;20069;-66
2021/05/25 02:00:39;;;;;;;7.10;5.13;;;;;;;14.33;75.89;100415.66;5045218;28;20461;-67
2021/05/25 02:03:07;;;;;;;7.38;4.85;;;;;;;14.30;75.75;100425.50;5045583;28;20136;-67
2021/05/25 02:05:35;;;;;;;8.88;6.07;;;;;;;14.30;76.40;100418.47;5045005;28;20065;-67
2021/05/25 02:08:04;;;;;;;11.30;6.10;;;;;;;14.26;76.33;100424.00;5045174;28;20091;-67
2021/05/25 02:10:46;;;;;;;5.85;4.95;;;;;;;14.19;76.54;100427.94;5044803;28;20056;-67
2021/05/25 02:13:18;;;;;;;6.60;5.43;;;;;;;14.11;76.60;100431.91;5045659;28;20095;-67
2021/05/25 02:15:48;;;;;;;6.50;5.78;;;;;;;14.15;76.35;100433.38;5046007;28;20041;-65
2021/05/25 02:18:36;;;;;;;7.38;6.43;;;;;;;14.02;78.35;100431.63;5046524;28;20128;-65
2021/05/25 02:21:06;;;;;;;7.60;5.28;;;;;;;13.87;78.97;100430.75;5046116;28;20501;-67
2021/05/25 02:23:34;;;;;;;6.80;5.40;;;;;;;14.00;78.47;100429.06;5044981;28;20045;-67
2021/05/25 02:26:02;;;;;;;7.95;5.20;;;;;;;13.99;77.98;100431.78;5046280;28;20119;-67
2021/05/25 02:28:29;;;;;;;5.80;5.03;;;;;;;14.01;77.35;100429.91;5046528;28;20120;-67
2021/05/25 02:30:56;;;;;;;6.45;5.03;;;;;;;14.08;77.89;100423.38;5045721;28;20079;-67
2021/05/25 02:33:25;;;;;;;6.75;5.20;;;;;;;14.01;77.22;100424.66;5045897;28;20075;-67
2021/05/25 02:35:54;;;;;;;6.05;5.50;;;;;;;14.02;77.59;100421.13;5046241;28;20088;-67
2021/05/25 02:38:21;;;;;;;6.50;5.70;;;;;;;14.02;77.31;100427.22;5045784;28;20116;-67
2021/05/25 02:40:50;;;;;;;5.35;4.70;;;;;;;13.97;77.38;100424.03;5045582;28;20056;-67
2021/05/25 02:43:20;;;;;;;5.97;5.38;;;;;;;13.98;77.26;100409.97;5045715;28;20047;-66
2021/05/25 02:45:50;;;;;;;5.30;4.75;;;;;;;14.06;77.76;100406.88;5045973;28;20506;-66
2021/05/25 02:48:18;;;;;;;6.75;6.05;;;;;;;14.03;77.72;100407.06;5045780;28;20075;-66
2021/05/25 02:50:45;;;;;;;5.70;5.10;;;;;;;14.05;77.32;100406.03;5050137;28;20384;-66
2021/05/25 02:53:13;;;;;;;5.40;4.63;;;;;;;13.98;76.87;100399.50;5049712;28;20048;-67
2021/05/25 02:55:41;;;;;;;7.10;5.80;;;;;;;14.00;77.09;100392.38;5049891;28;20567;-68
2021/05/25 02:58:10;;;;;;;5.35;4.72;;;;;;;13.99;76.80;100401.19;5049701;28;20095;-68
2021/05/25 03:00:45;;;;;;;8.70;5.57;;;;;;;14.03;76.67;100407.06;5049841;28;20114;-67
2021/05/25 03:03:13;;;;;;;6.47;4.43;;;;;;;13.94;76.86;100408.47;5049752;28;20508;-68
2021/05/25 03:05:42;;;;;;;9.05;5.38;;;;;;;13.91;76.67;100400.81;5049959;28;20219;-68
2021/05/25 03:08:11;;;;;;;6.70;5.40;;;;;;;13.85;76.67;100403.81;5049681;28;20064;-68
2021/05/25 03:10:41;;;;;;;6.72;5.30;;;;;;;13.86;77.37;100405.50;5049995;28;20069;-68
2021/05/25 03:13:08;;;;;;;6.95;5.43;;;;;;;13.88;77.57;100414.94;5047950;28;20048;-68
2021/05/25 03:15:41;;;;;;;11.25;5.32;;;;;;;13.87;77.72;100408.00;5049958;28;20442;-67
2021/05/25 03:18:10;;;;;;;10.57;4.93;;;;;;;13.84;77.79;100412.59;5048692;28;20437;-68
2021/05/25 03:20:38;;;;;;;8.45;5.60;;;;;;;13.75;77.79;100415.78;5048323;28;20475;-67
2021/05/25 03:23:07;;;;;;;6.53;4.88;;;;;;;13.75;77.77;100416.63;5032493;28;20698;-68
2021/05/25 03:25:34;;;;;;;8.27;6.05;;;;;;;13.82;78.15;100420.56;5049741;28;20094;-68
2021/05/25 03:28:01;;;;;;;6.45;5.32;;;;;;;13.85;78.00;100424.78;5049090;28;20128;-68
2021/05/25 03:30:28;;;;;;;7.50;5.38;;;;;;;13.82;77.97;100422.34;5049169;28;20040;-68
2021/05/25 03:32:57;;;;;;;6.03;5.43;;;;;;;13.77;78.33;100420.00;5049385;28;20114;-68
2021/05/25 03:35:27;;;;;;;8.68;5.93;;;;;;;13.78;78.18;100424.28;5048920;28;20387;-68
2021/05/25 03:37:54;;;;;;;8.40;5.35;;;;;;;13.86;78.06;100426.47;5049494;28;20128;-68
2021/05/25 03:40:21;;;;;;;7.80;5.53;;;;;;;13.88;77.67;100422.78;5049125;28;20118;-68
2021/05/25 03:42:50;;;;;;;6.82;5.65;;;;;;;13.88;77.96;100425.41;5050568;28;20045;-68
2021/05/25 03:45:19;;;;;;;5.60;4.72;;;;;;;13.86;77.97;100429.09;5050008;28;20091;-66
2021/05/25 03:47:46;;;;;;;8.55;5.45;;;;;;;13.80;77.75;100429.47;5050174;28;20459;-66
2021/05/25 03:50:14;;;;;;;8.93;5.32;;;;;;;13.67;78.07;100436.34;5050039;28;20120;-66
2021/05/25 03:52:47;;;;;;;6.10;5.50;;;;;;;13.79;77.54;100425.13;5050159;28;20083;-66
2021/05/25 03:55:37;;;;;;;8.93;4.68;;;;;;;13.60;78.13;100422.78;5048549;28;20065;-66
2021/05/25 04:00:52;;;;;;;6.40;5.03;;;;;;;13.81;77.79;100423.28;5030314;28;20094;-66
2021/05/25 04:03:19;;;;;;;8.52;5.53;;;;;;;13.75;77.75;100434.13;5049044;28;20048;-67
2021/05/25 04:05:46;;;;;;;7.55;4.65;;;;;;;13.95;77.48;100419.78;5048778;28;20056;-68
2021/05/25 04:08:16;;;;;;;8.88;6.03;;;;;;;13.70;77.84;100431.78;5049749;28;20045;-68
2021/05/25 04:10:44;;;;;;;11.95;6.00;;;;;;;13.92;77.50;100436.56;5049377;28;20095;-67
2021/05/25 04:13:12;;;;;;;7.53;5.72;;;;;;;13.87;77.70;100422.91;5047934;28;20093;-68
2021/05/25 04:15:51;;;;;;;7.43;5.03;;;;;;;13.84;77.69;100425.69;5037203;28;20065;-67
2021/05/25 04:18:18;;;;;;;8.70;5.13;;;;;;;13.87;78.30;100433.38;5054560;28;20435;-66
2021/05/25 04:20:45;;;;;;;6.75;4.97;;;;;;;13.97;78.00;100428.44;5053149;28;20396;-66
2021/05/25 04:23:13;;;;;;;7.97;6.03;;;;;;;13.92;77.81;100431.31;5052213;28;20440;-66
2021/05/25 04:25:40;;;;;;;5.05;4.55;;;;;;;13.97;78.04;100421.41;5048715;28;20037;-67
2021/05/25 04:28:07;;;;;;;8.65;4.88;;;;;;;13.96;78.66;100432.84;5050058;28;20068;-68
2021/05/25 04:30:35;;;;;;;5.15;4.60;;;;;;;14.19;77.53;100425.31;5047902;28;20033;-66
2021/05/25 04:33:02;;;;;;;5.00;4.15;;;;;;;14.18;77.03;100426.25;5048971;28;20069;-68
2021/05/25 04:35:29;;;;;;;7.97;3.83;;;;;;;14.25;75.85;100431.03;5054048;28;20079;-66
2021/05/25 04:37:58;;;;;;;7.55;4.65;;;;;;;14.25;77.11;100435.44;5054248;28;20061;-66
2021/05/25 04:40:26;;;;;;;5.70;3.90;;;;;;;14.34;75.69;100437.47;5054139;28;20462;-66
2021/05/25 04:42:53;;;;;;;6.32;4.57;;;;;;;14.31;76.37;100440.28;5047165;28;20496;-69
2021/05/25 04:45:21;;;;;;;8.02;4.65;;;;;;;14.30;77.53;100430.75;5052173;28;20040;-71
2021/05/25 04:47:48;;;;;;;6.32;4.07;;;;;;;14.38;77.80;100423.22;5053697;28;20573;-70
2021/05/25 04:50:16;;;;;;;7.97;5.47;;;;;;;14.55;77.65;100420.44;5053154;28;20037;-69
2021/05/25 04:52:43;;;;;;;10.98;7.47;;;;;;;14.72;76.70;100431.63;5053520;28;20091;-68
2021/05/25 04:55:13;;;;;;;11.00;8.65;;;;;;;14.97;76.53;100430.84;5053646;28;20033;-68
2021/05/25 04:57:41;;;;;;;16.73;8.82;;;;;;;15.20;75.54;100428.41;5047671;28;20495;-70
2021/05/25 05:00:15;;;;;;;10.23;9.05;;;;;;;15.36;75.52;100427.41;5051719;28;20072;-66
2021/05/25 05:02:42;;;;;;;11.60;10.27;;;;;;;15.58;75.08;100435.50;5052060;28;20119;-71
2021/05/25 05:05:10;;;;;;;10.77;9.32;;;;;;;15.80;74.74;100427.03;5054110;28;20061;-69
2021/05/25 05:07:37;;;;;;;16.83;9.80;;;;;;;16.14;75.28;100432.56;5049607;28;20048;-68
2021/05/25 05:10:05;;;;;;;16.02;10.95;;;;;;;16.07;74.28;100432.16;5052905;28;20049;-68
2021/05/25 05:12:33;;;;;;;12.10;10.15;;;;;;;16.38;74.53;100432.63;5052892;28;20091;-74
2021/05/25 05:15:01;;;;;;;18.30;12.02;;;;;;;16.77;72.06;100429.78;5053093;28;20458;-66
2021/05/25 05:17:28;;;;;;;11.05;8.93;;;;;;;17.10;71.36;100432.69;5035459;28;20041;-66
2021/05/25 05:19:55;;;;;;;15.90;10.90;;;;;;;17.15;69.26;100439.31;5052462;28;20129;-65
2021/05/25 05:22:23;;;;;;;12.23;10.07;;;;;;;17.25;69.85;100434.19;5049726;28;20068;-66
2021/05/25 05:24:50;;;;;;;17.65;12.35;;;;;;;17.50;68.30;100435.81;5052562;28;20083;-65
2021/05/25 05:27:17;;;;;;;19.80;12.68;;;;;;;17.25;68.90;100429.75;5052468;28;20045;-65
2021/05/25 05:29:44;;;;;;;19.77;11.57;;;;;;;17.29;69.44;100436.47;5052290;28;20041;-68
2021/05/25 05:32:11;;;;;;;23.00;11.25;;;;;;;17.94;68.38;100434.22;5034739;28;20037;-64
2021/05/25 05:34:38;;;;;;;15.32;11.57;;;;;;;18.09;67.23;100433.03;5052682;28;20044;-66
2021/05/25 05:37:05;;;;;;;15.27;12.05;;;;;;;18.20;66.34;100443.56;5051754;28;20419;-73
2021/05/25 05:39:32;;;;;;;16.73;11.27;;;;;;;18.58;67.27;100442.31;5052662;28;20091;-65
2021/05/25 05:41:59;;;;;;;13.90;12.40;;;;;;;19.19;65.60;100436.53;5051226;28;20049;-71
2021/05/25 05:44:27;;;;;;;14.80;11.57;;;;;;;19.72;64.37;100434.69;5049524;28;20065;-71
2021/05/25 05:46:54;;;;;;;15.52;13.05;;;;;;;19.85;62.95;100431.84;5050691;28;20082;-73
2021/05/25 05:49:22;;;;;;;12.25;10.68;;;;;;;20.44;61.48;100431.06;5048935;28;20565;-70
2021/05/25 05:51:51;;;;;;;14.15;9.43;;;;;;;20.54;58.76;100428.47;5046898;28;20116;-69
2021/05/25 05:54:19;;;;;;;11.50;8.85;;;;;;;20.77;57.78;100437.84;5050658;28;20422;-65
2021/05/25 05:56:47;;;;;;;11.23;7.45;;;;;;;21.09;57.05;100437.63;5049765;28;20103;-64
2021/05/25 05:59:17;;;;;;;8.93;7.30;;;;;;;21.37;54.64;100441.25;5044978;28;20044;-65
2021/05/25 06:01:44;;;;;;;14.55;8.65;;;;;;;21.55;53.36;100445.84;5048034;28;20136;-65
2021/05/25 06:04:12;;;;;;;11.20;8.68;;;;;;;21.55;52.72;100448.47;5049284;28;20499;-68
2021/05/25 06:06:40;;;;;;;12.38;9.00;;;;;;;21.83;52.35;100446.72;5052394;28;20061;-65
2021/05/25 06:09:07;;;;;;;14.07;8.77;;;;;;;22.36;51.97;100457.59;5049276;28;20411;-67
2021/05/25 06:11:35;;;;;;;17.73;9.77;;;;;;;22.33;51.33;100463.22;5052189;28;20567;-66
2021/05/25 06:14:02;;;;;;;12.07;10.80;;;;;;;21.57;53.96;100457.13;5049358;28;20037;-70
2021/05/25 06:16:31;;;;;;;12.77;10.52;;;;;;;21.40;54.88;100470.13;5051919;28;20040;-66
2021/05/25 06:18:58;;;;;;;12.35;8.88;;;;;;;22.00;54.34;100471.69;5052026;28;20120;-67
2021/05/25 06:21:25;;;;;;;13.95;9.45;;;;;;;22.32;53.67;100481.94;5051312;28;20041;-66
2021/05/25 06:23:52;;;;;;;9.85;8.85;;;;;;;22.27;53.83;100479.75;5051595;28;20456;-66
2021/05/25 06:26:21;;;;;;;13.63;10.85;;;;;;;22.62;51.47;100486.94;5051735;28;20033;-67
2021/05/25 06:28:48;;;;;;;12.38;8.05;;;;;;;22.37;50.27;100498.25;5052025;28;20064;-67
2021/05/25 06:31:15;;;;;;;14.27;8.55;;;;;;;22.78;51.82;100507.56;5051582;28;20045;-67
2021/05/25 06:33:42;;;;;;;11.13;8.77;;;;;;;23.34;51.47;100503.84;5049809;28;20408;-68
2021/05/25 06:36:09;;;;;;;11.18;9.05;;;;;;;23.75;50.13;100505.03;5049526;28;20053;-66
2021/05/25 06:38:36;;;;;;;11.55;9.35;;;;;;;23.94;50.32;100506.66;5050373;28;20048;-68
2021/05/25 06:41:03;;;;;;;11.63;9.70;;;;;;;24.00;48.38;100510.53;5049472;28;20049;-67
2021/05/25 06:43:30;;;;;;;10.13;8.95;;;;;;;24.81;47.83;100507.41;5049626;28;20037;-67
2021/05/25 06:45:57;;;;;;;7.25;6.30;;;;;;;25.16;45.56;100508.19;5049870;28;20519;-68
2021/05/25 06:48:24;;;;;;;9.13;7.10;;;;;;;25.38;44.83;100510.22;5051077;28;20494;-69
2021/05/25 06:50:51;;;;;;;6.80;6.13;;;;;;;25.76;44.18;100505.22;5051875;28;20049;-68
2021/05/25 06:53:18;;;;;;;7.53;6.63;;;;;;;25.21;43.50;100508.53;5051355;28;20483;-68
2021/05/25 06:55:45;;;;;;;6.13;5.47;;;;;;;25.72;43.62;100510.03;5045416;28;20553;-67
2021/05/25 06:58:12;;;;;;;9.70;4.88;;;;;;;26.04;42.50;100501.16;5045705;28;20045;-67
2021/05/25 07:00:39;;;;;;;7.28;4.45;;;;;;;26.13;43.33;100507.31;5049583;28;20098;-67
2021/05/25 07:03:06;;;;;;;4.63;4.03;;;;;;;26.40;41.37;100511.41;5045067;28;20124;-68
2021/05/25 07:05:33;;;;;;;5.05;3.85;;;;;;;26.61;40.73;100508.16;5043375;28;20224;-74
2021/05/25 07:08:01;;;;;;;2.53;2.33;;;;;;;26.81;40.81;100512.09;5045942;28;20124;-70
2021/05/25 07:10:28;;;;;;;3.30;2.58;;;;;;;27.17;40.03;100506.22;5049889;28;20128;-69
2021/05/25 07:12:54;;;;;;;5.53;3.72;;;;;;;27.30;40.55;100508.28;5045027;28;20041;-69
2021/05/25 07:15:22;;;;;;;3.58;3.28;;;;;;;27.73;39.00;100509.44;5043910;28;20380;-71
2021/05/25 07:17:58;;;;;;;4.57;3.17;;;;;;;27.98;37.89;100509.22;5044799;28;20442;-70
2021/05/25 07:20:26;;;;;;;4.03;3.05;;;;;;;27.96;38.59;100516.59;5041961;28;20083;-69
2021/05/25 07:22:54;;;;;;;3.65;2.90;;;;;;;27.71;38.00;100516.00;5043785;28;20122;-71
2021/05/25 07:25:23;;;;;;;7.68;3.20;;;;;;;27.66;37.92;100517.34;5045125;28;20045;-72
2021/05/25 07:27:51;;;;;;;5.38;1.58;;;;;;;27.77;37.17;100520.63;5045049;28;20594;-72
2021/05/25 07:30:19;;;;;;;3.03;1.73;;;;;;;27.92;36.18;100521.50;5044995;28;20401;-72
2021/05/25 07:32:46;;;;;;;8.13;1.75;;;;;;;28.22;36.65;100521.50;5045125;28;20456;-73
2021/05/25 07:35:14;;;;;;;3.78;1.88;;;;;;;28.47;35.88;100514.03;5044279;28;20045;-71
2021/05/25 07:37:41;;;;;;;3.03;1.92;;;;;;;28.18;36.48;100513.84;5048800;28;20095;-69
2021/05/25 07:40:10;;;;;;;4.68;2.05;;;;;;;28.08;37.34;100517.81;5048942;28;20071;-71
2021/05/25 07:42:37;;;;;;;3.53;1.77;;;;;;;29.03;36.35;100525.91;5048633;28;20145;-71
2021/05/25 07:45:05;;;;;;;6.07;2.10;;;;;;;27.81;36.18;100522.78;5048393;28;20124;-69
2021/05/25 07:47:32;;;;;;;2.40;2.20;;;;;;;28.29;34.67;100519.78;5047989;28;20095;-68
2021/05/25 07:50:16;;;;;;;2.42;1.88;;;;;;;27.80;36.29;100518.41;5048937;28;20380;-73
2021/05/25 07:52:52;;;;;;;3.50;1.53;;;;;;;28.79;34.75;100529.72;5048836;28;20117;-70
2021/05/25 07:55:23;;;;;;;3.67;1.52;;;;;;;29.07;35.31;100527.16;5047474;28;20041;-70
2021/05/25 07:57:50;;;;;;;4.65;2.30;;;;;;;29.13;34.88;100529.06;5047004;28;20045;-71
2021/05/25 08:00:19;;;;;;;3.92;1.70;;;;;;;29.37;33.73;100535.09;5048323;28;20119;-67
2021/05/25 08:02:46;;;;;;;3.58;1.70;;;;;;;29.30;34.66;100531.53;5042998;28;20448;-66
2021/05/25 08:05:16;;;;;;;5.45;2.60;;;;;;;28.08;34.23;100537.41;5046983;28;20120;-69
2021/05/25 08:07:43;;;;;;;3.08;2.88;;;;;;;28.50;34.32;100527.91;5046839;28;20040;-70
2021/05/25 08:10:13;;;;;;;2.47;2.10;;;;;;;28.21;35.28;100539.44;5047352;28;20041;-68
2021/05/25 08:12:40;;;;;;;3.58;2.50;;;;;;;28.58;34.90;100537.69;5046808;28;20469;-67
2021/05/25 08:15:09;;;;;;;4.47;2.53;;;;;;;28.64;34.16;100543.13;5046370;28;20041;-68
2021/05/25 08:20:22;;;;;;;7.38;3.00;;;;;;;28.10;35.12;100545.25;5049323;28;20099;-67
2021/05/25 08:23:11;;;;;;;5.10;2.55;;;;;;;27.61;35.17;100541.16;5046692;28;20048;-67
2021/05/25 08:25:41;;;;;;;3.50;1.98;;;;;;;28.25;36.11;100547.94;5048055;28;20061;-67
2021/05/25 08:28:10;;;;;;;2.38;1.80;;;;;;;28.09;35.37;100547.09;5049316;28;20094;-69
2021/05/25 08:30:40;;;;;;;2.45;1.73;;;;;;;28.50;34.89;100549.38;5046466;28;20139;-68
2021/05/25 08:33:10;;;;;;;3.22;2.30;;;;;;;27.71;35.40;100548.97;5045975;28;20052;-68
2021/05/25 08:35:39;;;;;;;4.60;2.20;;;;;;;27.65;36.17;100541.66;5046853;28;20132;-67
2021/05/25 08:38:08;;;;;;;3.22;2.60;;;;;;;27.11;36.48;100550.56;5047645;28;20164;-68
2021/05/25 08:40:37;;;;;;;3.33;3.03;;;;;;;27.96;36.44;100548.75;5029182;28;20526;-67
2021/05/25 08:43:05;;;;;;;5.40;3.05;;;;;;;27.50;37.09;100549.63;5046070;28;20037;-66
2021/05/25 08:45:33;;;;;;;3.35;2.50;;;;;;;27.67;38.04;100556.50;5047276;28;20111;-66
2021/05/25 08:48:01;;;;;;;3.38;3.08;;;;;;;27.18;38.77;100556.03;5026092;28;20147;-67
2021/05/25 08:50:48;;;;;;;6.80;3.28;;;;;;;27.36;37.41;100547.72;5046379;28;20440;-68
2021/05/25 08:53:15;;;;;;;6.22;3.08;;;;;;;27.68;38.18;100547.44;5046551;28;20133;-69
2021/05/25 08:55:46;;;;;;;7.95;4.25;;;;;;;26.81;38.36;100538.81;5046998;28;20086;-71
2021/05/25 08:58:13;;;;;;;4.90;3.97;;;;;;;25.62;41.23;100544.09;5047324;28;20048;-72
2021/05/25 09:00:40;;;;;;;4.65;4.25;;;;;;;25.69;41.07;100546.91;5051494;28;20071;-73
2021/05/25 09:03:07;;;;;;;4.60;3.85;;;;;;;25.60;41.28;100554.09;5046182;28;20527;-71
2021/05/25 09:05:34;;;;;;;5.25;4.28;;;;;;;25.78;41.66;100535.25;5049636;28;20049;-72
2021/05/25 09:08:01;;;;;;;7.03;3.67;;;;;;;26.00;41.03;100534.56;5051955;28;20049;-72
2021/05/25 09:10:43;;;;;;;5.22;3.65;;;;;;;25.65;41.99;100533.06;5052478;28;20053;-70
2021/05/25 09:13:23;;;;;;;5.90;3.92;;;;;;;25.56;42.81;100532.22;5051258;28;20095;-71
2021/05/25 09:15:51;;;;;;;4.32;3.90;;;;;;;25.29;43.37;100535.22;5049467;28;20087;-72
2021/05/25 09:18:25;;;;;;;3.85;3.13;;;;;;;25.29;43.52;100540.53;5050068;28;20148;-70
2021/05/25 09:20:53;;;;;;;;;;;;;;;25.14;42.85;100536.84;5051018;28;20095;-71
2021/05/25 09:23:43;;;;;;;5.00;3.67;;;;;;;25.49;43.33;100541.06;5050059;28;19925;-69
2021/05/25 09:26:14;;;;;;;4.25;3.28;;;;;;;25.41;42.90;100541.06;5030065;28;20511;-68
2021/05/25 09:29:02;;;;;;;4.32;3.55;;;;;;;25.67;43.17;100536.38;5051723;28;20090;-71
2021/05/25 09:31:35;;;;;;;3.97;3.58;;;;;;;25.29;42.56;100540.53;5031115;28;20045;-70
2021/05/25 09:34:04;;;;;;;7.82;3.75;;;;;;;25.27;43.49;100547.88;5046145;28;20182;-69
2021/05/25 09:36:31;;;;;;;9.15;3.90;;;;;;;25.16;44.33;100540.22;5047058;28;20029;-69
2021/05/25 09:39:07;;;;;;;6.75;4.88;;;;;;;25.08;44.58;100549.84;5045366;28;20077;-68
2021/05/25 09:41:55;;;;;;;7.80;4.35;;;;;;;24.67;45.98;100540.03;5051113;28;20086;-69
2021/05/25 09:44:22;;;;;;;9.77;5.22;;;;;;;24.88;46.12;100542.28;5052458;28;20132;-67
2021/05/25 09:46:49;;;;;;;7.07;5.93;;;;;;;24.24;45.73;100544.47;5052615;28;20452;-69
2021/05/25 09:49:16;;;;;;;6.32;5.55;;;;;;;23.94;47.62;100543.94;5052657;28;20061;-68
2021/05/25 09:51:43;;;;;;;7.57;5.47;;;;;;;24.48;47.87;100541.94;5052380;28;20037;-69
2021/05/25 09:54:24;;;;;;;6.70;5.72;;;;;;;24.32;48.63;100531.19;5051754;28;20083;-67
2021/05/25 09:57:02;;;;;;;10.65;5.93;;;;;;;24.07;48.35;100537.34;5050079;28;20041;-68
2021/05/25 09:59:32;;;;;;;4.60;4.20;;;;;;;24.01;48.81;100544.13;5052411;28;20099;-66
2021/05/25 10:02:22;;;;;;;6.43;5.35;;;;;;;23.90;48.29;100537.25;5051809;28;20059;-69
2021/05/25 10:05:07;;;;;;;8.73;5.47;;;;;;;23.56;48.57;100533.63;5050194;28;20072;-70
2021/05/25 10:07:36;;;;;;;7.13;5.10;;;;;;;23.70;47.89;100539.28;5051557;28;20084;-68
2021/05/25 10:10:06;;;;;;;5.05;4.55;;;;;;;24.04;47.67;100535.84;5052115;28;20041;-68
2021/05/25 10:12:35;;;;;;;5.30;4.03;;;;;;;24.11;46.26;100533.38;5052071;28;20517;-67
2021/05/25 10:15:02;;;;;;;3.97;3.58;;;;;;;24.04;46.11;100534.03;5052116;28;20076;-68
2021/05/25 10:20:07;;;;;;;5.93;4.13;;;;;;;24.36;46.72;100529.91;5035670;28;20102;-69
2021/05/25 10:22:38;;;;;;;8.95;4.53;;;;;;;24.29;46.19;100534.19;5043187;28;20151;-69
2021/05/25 10:25:08;;;;;;;7.18;3.50;;;;;;;24.46;45.10;100540.44;5045843;28;20087;-67
2021/05/25 10:27:35;;;;;;;6.65;2.80;;;;;;;24.62;43.77;100526.34;5045471;28;20133;-69
2021/05/25 10:30:31;;;;;;;6.70;2.28;;;;;;;24.44;40.97;100535.25;5044882;28;20047;-69
2021/05/25 10:33:23;;;;;;;4.18;2.00;;;;;;;24.30;39.35;100544.66;5036042;28;20041;-70
2021/05/25 10:35:58;;;;;;;1.92;1.35;;;;;;;24.29;39.63;100528.84;5036601;28;20045;-69
2021/05/25 10:38:31;;;;;;;9.32;4.65;;;;;;;24.18;45.92;100521.97;5045160;28;20483;-70
2021/05/25 10:41:05;;;;;;;5.85;2.47;;;;;;;24.12;41.58;100524.41;5048113;28;20072;-70
2021/05/25 10:43:38;;;;;;;4.80;2.78;;;;;;;24.07;41.45;100526.69;5046117;28;20499;-69
2021/05/25 10:46:11;;;;;;;6.97;4.90;;;;;;;23.86;46.81;100529.72;5045621;28;20045;-68
2021/05/25 10:49:01;;;;;;;7.53;4.13;;;;;;;23.83;47.49;100525.56;5045978;28;20071;-67
2021/05/25 10:51:52;;;;;;;7.05;4.25;;;;;;;23.68;47.36;100527.09;5047519;28;20041;-67
2021/05/25 10:54:34;;;;;;;3.40;2.35;;;;;;;23.75;43.35;100534.28;5035652;28;20053;-66
2021/05/25 10:57:37;;;;;;;5.68;2.33;;;;;;;23.60;42.88;100524.34;5046753;28;20041;-65
2021/05/25 11:00:10;;;;;;;6.18;4.28;;;;;;;23.69;44.15;100523.44;5030289;28;20102;-67
2021/05/25 11:02:55;;;;;;;7.07;3.50;;;;;;;23.74;46.04;100526.47;5045365;28;20107;-68
2021/05/25 11:05:28;;;;;;;6.35;2.70;;;;;;;23.91;44.90;100528.25;5045355;28;20091;-67
2021/05/25 11:07:56;;;;;;;5.18;2.47;;;;;;;24.12;43.82;100525.22;5044708;28;20053;-67
2021/05/25 11:10:26;;;;;;;5.45;3.45;;;;;;;23.91;45.74;100527.41;5046178;28;20088;-68
2021/05/25 11:13:18;;;;;;;7.32;5.18;;;;;;;23.86;47.50;100525.22;5043274;28;20456;-68
2021/05/25 11:16:07;;;;;;;5.63;4.63;;;;;;;23.69;47.73;100536.75;5045234;28;20068;-69
2021/05/25 11:18:42;;;;;;;8.20;5.30;;;;;;;23.71;46.66;100522.31;5046785;28;20129;-70
2021/05/25 11:24:37;;;;;;;3.13;2.65;;;;;;;23.86;42.80;100527.06;5046558;28;20144;-69
2021/05/25 11:27:14;;;;;;;4.03;3.13;;;;;;;23.83;44.61;100530.88;5047135;28;20041;-69
2021/05/25 11:29:41;;;;;;;3.97;2.85;;;;;;;23.92;45.70;100529.13;5048745;28;20106;-69
2021/05/25 11:32:19;;;;;;;6.18;3.67;;;;;;;24.13;44.89;100526.94;5047452;28;20041;-66
2021/05/25 11:35:01;;;;;;;9.00;4.50;;;;;;;24.27;44.54;100528.16;5050388;28;20134;-68
2021/05/25 11:37:33;;;;;;;8.07;4.30;;;;;;;24.09;45.06;100533.56;5047534;28;20040;-67
2021/05/25 11:40:00;;;;;;;6.47;3.13;;;;;;;24.10;44.66;100531.72;5048398;28;20048;-69
2021/05/25 11:42:29;;;;;;;6.43;2.72;;;;;;;24.11;43.00;100525.41;5049524;28;20041;-65
2021/05/25 11:44:57;;;;;;;7.43;3.83;;;;;;;24.05;43.61;100524.19;5054116;28;20046;-68
2021/05/25 11:47:24;;;;;;;5.47;3.15;;;;;;;23.87;43.44;100529.59;5054284;28;20041;-69
2021/05/25 11:49:52;;;;;;;6.88;2.65;;;;;;;23.90;43.26;100526.59;5053082;28;20044;-66